sensor_id;sensor_type;location;lat;lon;timestamp;pressure;altitude;pressure_sealevel;temperature;humidity
3668;BME280;24099;47.102;15.440;2023-03-21T00:01:42;97238.09;;;4.77;100.00
3668;BME280;24099;47.102;15.440;2023-03-21T00:04:10;97238.38;;;4.74;100.00
3668;BME280;24099;47.102;15.440;2023-03-21T00:06:41;97240.38;;;4.80;100.00
3668;BME280;24099;47.102;15.440;2023-03-21T00:09:11;97244.75;;;4.89;100.00
3668;BME280;24099;47.102;15.440;2023-03-21T00:11:39;97235.69;;;4.93;100.00
3668;BME280;24099;47.102;15.440;2023-03-21T00:14:07;97234.56;;;4.96;100.00
3668;BME280;24099;47.102;15.440;2023-03-21T00:16:40;97238.47;;;5.09;100.00
3668;BME280;24099;47.102;15.440;2023-03-21T00:19:12;97233.94;;;5.11;100.00
3668;BME280;24099;47.102;15.440;2023-03-21T00:21:41;97233.09;;;5.11;100.00
3668;BME280;24099;47.102;15.440;2023-03-21T00:24:10;97234.81;;;5.20;100.00
3668;BME280;24099;47.102;15.440;2023-03-21T00:26:38;97234.78;;;5.30;100.00
3668;BME280;24099;47.102;15.440;2023-03-21T00:29:06;97225.41;;;5.37;100.00
3668;BME280;24099;47.102;15.440;2023-03-21T00:31:34;97237.00;;;5.42;100.00
3668;BME280;24099;47.102;15.440;2023-03-21T00:34:01;97229.81;;;5.54;100.00
3668;BME280;24099;47.102;15.440;2023-03-21T00:36:32;97236.38;;;5.58;100.00
3668;BME280;24099;47.102;15.440;2023-03-21T00:39:22;97224.00;;;5.78;100.00
3668;BME280;24099;47.102;15.440;2023-03-21T00:41:54;97224.13;;;5.76;100.00
3668;BME280;24099;47.102;15.440;2023-03-21T00:44:24;97223.63;;;5.73;100.00
3668;BME280;24099;47.102;15.440;2023-03-21T00:46:54;97219.41;;;5.80;100.00
3668;BME280;24099;47.102;15.440;2023-03-21T00:49:27;97219.41;;;5.80;100.00
3668;BME280;24099;47.102;15.440;2023-03-21T00:52:03;97212.75;;;5.85;100.00
3668;BME280;24099;47.102;15.440;2023-03-21T00:54:33;97217.16;;;5.85;100.00
3668;BME280;24099;47.102;15.440;2023-03-21T00:57:04;97212.50;;;5.88;100.00
3668;BME280;24099;47.102;15.440;2023-03-21T00:59:32;97212.91;;;6.02;100.00
3668;BME280;24099;47.102;15.440;2023-03-21T01:02:00;97207.81;;;6.18;100.00
3668;BME280;24099;47.102;15.440;2023-03-21T01:04:33;97201.97;;;5.98;100.00
3668;BME280;24099;47.102;15.440;2023-03-21T01:07:01;97204.25;;;6.19;100.00
3668;BME280;24099;47.102;15.440;2023-03-21T01:09:28;97203.06;;;6.13;100.00
3668;BME280;24099;47.102;15.440;2023-03-21T01:11:59;97204.47;;;6.08;100.00
3668;BME280;24099;47.102;15.440;2023-03-21T01:14:27;97204.47;;;6.08;100.00
3668;BME280;24099;47.102;15.440;2023-03-21T01:16:55;97197.63;;;6.07;100.00
3668;BME280;24099;47.102;15.440;2023-03-21T01:19:24;97205.44;;;6.07;100.00
3668;BME280;24099;47.102;15.440;2023-03-21T01:21:56;97205.66;;;6.13;100.00
3668;BME280;24099;47.102;15.440;2023-03-21T01:24:24;97202.38;;;6.11;100.00
3668;BME280;24099;47.102;15.440;2023-03-21T01:26:52;97205.44;;;6.07;100.00
3668;BME280;24099;47.102;15.440;2023-03-21T01:29:25;97209.25;;;6.12;100.00
3668;BME280;24099;47.102;15.440;2023-03-21T01:31:53;97199.78;;;6.11;100.00
3668;BME280;24099;47.102;15.440;2023-03-21T01:34:21;97204.31;;;6.09;100.00
3668;BME280;24099;47.102;15.440;2023-03-21T01:36:49;97200.81;;;6.18;100.00
3668;BME280;24099;47.102;15.440;2023-03-21T01:39:20;97199.63;;;6.13;100.00
3668;BME280;24099;47.102;15.440;2023-03-21T01:41:55;97200.13;;;6.16;100.00
3668;BME280;24099;47.102;15.440;2023-03-21T01:44:29;97194.09;;;6.16;100.00
3668;BME280;24099;47.102;15.440;2023-03-21T01:46:57;97185.44;;;6.15;100.00
3668;BME280;24099;47.102;15.440;2023-03-21T01:49:45;97192.53;;;6.31;100.00
3668;BME280;24099;47.102;15.440;2023-03-21T01:52:37;97183.59;;;6.42;100.00
3668;BME280;24099;47.102;15.440;2023-03-21T01:55:14;97181.50;;;6.19;100.00
3668;BME280;24099;47.102;15.440;2023-03-21T01:58:25;97166.84;;;6.18;100.00
3668;BME280;24099;47.102;15.440;2023-03-21T02:01:27;97168.13;;;6.14;100.00
3668;BME280;24099;47.102;15.440;2023-03-21T02:03:57;97163.94;;;6.04;100.00
3668;BME280;24099;47.102;15.440;2023-03-21T02:06:47;97154.44;;;5.95;100.00
3668;BME280;24099;47.102;15.440;2023-03-21T02:09:38;97161.66;;;5.83;100.00
3668;BME280;24099;47.102;15.440;2023-03-21T02:12:14;97167.25;;;5.88;100.00
3668;BME280;24099;47.102;15.440;2023-03-21T02:14:47;97160.97;;;5.81;100.00
3668;BME280;24099;47.102;15.440;2023-03-21T02:17:42;97152.66;;;5.60;100.00
3668;BME280;24099;47.102;15.440;2023-03-21T02:20:38;97159.00;;;5.75;100.00
3668;BME280;24099;47.102;15.440;2023-03-21T02:26:52;97156.44;;;5.39;100.00
3668;BME280;24099;47.102;15.440;2023-03-21T02:32:28;97161.72;;;5.12;100.00
3668;BME280;24099;47.102;15.440;2023-03-21T02:35:27;97160.38;;;5.08;100.00
3668;BME280;24099;47.102;15.440;2023-03-21T02:38:04;97164.16;;;4.96;100.00
3668;BME280;24099;47.102;15.440;2023-03-21T02:40:43;97163.69;;;5.00;100.00
3668;BME280;24099;47.102;15.440;2023-03-21T02:43:29;97169.00;;;4.91;100.00
3668;BME280;24099;47.102;15.440;2023-03-21T02:46:09;97166.81;;;4.86;100.00
3668;BME280;24099;47.102;15.440;2023-03-21T02:48:44;97161.97;;;4.73;100.00
3668;BME280;24099;47.102;15.440;2023-03-21T02:51:16;97162.63;;;4.48;100.00
3668;BME280;24099;47.102;15.440;2023-03-21T02:53:51;97160.69;;;4.50;100.00
3668;BME280;24099;47.102;15.440;2023-03-21T02:56:20;97173.13;;;4.29;100.00
3668;BME280;24099;47.102;15.440;2023-03-21T02:58:55;97171.00;;;4.42;100.00
3668;BME280;24099;47.102;15.440;2023-03-21T03:01:33;97167.22;;;4.36;100.00
3668;BME280;24099;47.102;15.440;2023-03-21T03:04:01;97165.31;;;4.29;100.00
3668;BME280;24099;47.102;15.440;2023-03-21T03:06:38;97167.41;;;4.53;100.00
3668;BME280;24099;47.102;15.440;2023-03-21T03:09:28;97179.97;;;4.39;100.00
3668;BME280;24099;47.102;15.440;2023-03-21T03:12:07;97176.97;;;4.25;100.00
3668;BME280;24099;47.102;15.440;2023-03-21T03:14:44;97175.66;;;4.11;100.00
3668;BME280;24099;47.102;15.440;2023-03-21T03:17:25;97177.44;;;4.10;100.00
3668;BME280;24099;47.102;15.440;2023-03-21T03:20:10;97177.84;;;4.15;100.00
3668;BME280;24099;47.102;15.440;2023-03-21T03:22:51;97174.84;;;4.01;100.00
3668;BME280;24099;47.102;15.440;2023-03-21T03:25:27;97176.53;;;3.83;100.00
3668;BME280;24099;47.102;15.440;2023-03-21T03:27:58;97182.44;;;3.75;100.00
3668;BME280;24099;47.102;15.440;2023-03-21T03:30:31;97184.47;;;3.91;100.00
3668;BME280;24099;47.102;15.440;2023-03-21T03:33:08;97183.66;;;3.90;100.00
3668;BME280;24099;47.102;15.440;2023-03-21T03:35:43;97185.84;;;3.85;100.00
3668;BME280;24099;47.102;15.440;2023-03-21T03:38:14;97186.97;;;3.73;100.00
3668;BME280;24099;47.102;15.440;2023-03-21T03:40:47;97188.03;;;3.80;100.00
3668;BME280;24099;47.102;15.440;2023-03-21T03:43:41;97186.44;;;3.50;100.00
3668;BME280;24099;47.102;15.440;2023-03-21T03:46:18;97184.63;;;3.70;100.00
3668;BME280;24099;47.102;15.440;2023-03-21T03:48:55;97181.88;;;3.62;100.00
3668;BME280;24099;47.102;15.440;2023-03-21T03:51:31;97185.88;;;3.56;100.00
3668;BME280;24099;47.102;15.440;2023-03-21T03:54:29;97187.53;;;3.47;100.00
3668;BME280;24099;47.102;15.440;2023-03-21T03:57:05;97187.81;;;3.54;100.00
3668;BME280;24099;47.102;15.440;2023-03-21T03:59:35;97183.81;;;3.40;100.00
3668;BME280;24099;47.102;15.440;2023-03-21T04:02:23;97184.63;;;3.22;100.00
3668;BME280;24099;47.102;15.440;2023-03-21T04:04:56;97192.44;;;3.41;100.00
3668;BME280;24099;47.102;15.440;2023-03-21T04:07:23;97188.38;;;3.38;100.00
3668;BME280;24099;47.102;15.440;2023-03-21T04:10:01;97187.53;;;3.28;100.00
3668;BME280;24099;47.102;15.440;2023-03-21T04:12:38;97189.69;;;3.23;100.00
3668;BME280;24099;47.102;15.440;2023-03-21T04:15:24;97187.53;;;3.19;100.00
3668;BME280;24099;47.102;15.440;2023-03-21T04:17:58;97198.06;;;3.27;100.00
3668;BME280;24099;47.102;15.440;2023-03-21T04:20:26;97188.91;;;3.32;100.00
3668;BME280;24099;47.102;15.440;2023-03-21T04:22:54;97188.50;;;3.18;100.00
3668;BME280;24099;47.102;15.440;2023-03-21T04:25:23;97202.00;;;3.21;100.00
3668;BME280;24099;47.102;15.440;2023-03-21T04:27:57;97203.97;;;3.19;100.00
3668;BME280;24099;47.102;15.440;2023-03-21T04:30:37;97199.81;;;3.07;100.00
3668;BME280;24099;47.102;15.440;2023-03-21T04:33:14;97189.03;;;3.11;100.00
3668;BME280;24099;47.102;15.440;2023-03-21T04:35:50;97205.97;;;3.06;100.00
3668;BME280;24099;47.102;15.440;2023-03-21T04:38:24;97204.47;;;3.03;100.00
3668;BME280;24099;47.102;15.440;2023-03-21T04:40:59;97205.56;;;3.10;100.00
3668;BME280;24099;47.102;15.440;2023-03-21T04:43:31;97203.75;;;2.92;100.00
3668;BME280;24099;47.102;15.440;2023-03-21T04:46:03;97207.84;;;2.85;100.00
3668;BME280;24099;47.102;15.440;2023-03-21T04:48:31;97208.25;;;2.90;100.00
3668;BME280;24099;47.102;15.440;2023-03-21T04:51:00;97210.38;;;2.65;100.00
3668;BME280;24099;47.102;15.440;2023-03-21T04:53:28;97208.22;;;2.80;100.00
3668;BME280;24099;47.102;15.440;2023-03-21T04:55:59;97207.28;;;2.81;100.00
3668;BME280;24099;47.102;15.440;2023-03-21T04:58:31;97205.09;;;2.86;100.00
3668;BME280;24099;47.102;15.440;2023-03-21T05:00:59;97214.75;;;2.65;100.00
3668;BME280;24099;47.102;15.440;2023-03-21T05:03:30;97214.78;;;2.74;100.00
3668;BME280;24099;47.102;15.440;2023-03-21T05:06:01;97208.34;;;2.69;100.00
3668;BME280;24099;47.102;15.440;2023-03-21T05:08:29;97219.13;;;2.64;100.00
3668;BME280;24099;47.102;15.440;2023-03-21T05:10:59;97222.94;;;2.60;100.00
3668;BME280;24099;47.102;15.440;2023-03-21T05:13:28;97214.25;;;2.81;100.00
3668;BME280;24099;47.102;15.440;2023-03-21T05:16:13;97222.53;;;2.55;100.00
3668;BME280;24099;47.102;15.440;2023-03-21T05:18:45;97225.72;;;2.68;100.00
3668;BME280;24099;47.102;15.440;2023-03-21T05:21:19;97231.91;;;2.77;100.00
3668;BME280;24099;47.102;15.440;2023-03-21T05:23:49;97224.13;;;2.77;100.00
3668;BME280;24099;47.102;15.440;2023-03-21T05:26:21;97229.59;;;2.84;100.00
3668;BME280;24099;47.102;15.440;2023-03-21T05:28:57;97229.72;;;2.82;100.00
3668;BME280;24099;47.102;15.440;2023-03-21T05:31:26;97237.06;;;2.67;100.00
3668;BME280;24099;47.102;15.440;2023-03-21T05:34:05;97232.28;;;2.72;100.00
3668;BME280;24099;47.102;15.440;2023-03-21T05:36:33;97239.97;;;2.74;100.00
3668;BME280;24099;47.102;15.440;2023-03-21T05:39:04;97237.50;;;2.72;100.00
3668;BME280;24099;47.102;15.440;2023-03-21T05:41:35;97245.19;;;2.84;100.00
3668;BME280;24099;47.102;15.440;2023-03-21T05:44:07;97241.88;;;2.82;100.00
3668;BME280;24099;47.102;15.440;2023-03-21T05:46:38;97239.19;;;2.93;100.00
3668;BME280;24099;47.102;15.440;2023-03-21T05:49:06;97242.50;;;2.95;100.00
3668;BME280;24099;47.102;15.440;2023-03-21T05:51:35;97248.00;;;2.71;100.00
3668;BME280;24099;47.102;15.440;2023-03-21T05:54:05;97245.19;;;2.84;100.00
3668;BME280;24099;47.102;15.440;2023-03-21T05:56:34;97241.22;;;2.80;100.00
3668;BME280;24099;47.102;15.440;2023-03-21T05:59:04;97249.97;;;2.79;100.00
3668;BME280;24099;47.102;15.440;2023-03-21T06:01:39;97246.03;;;2.94;100.00
3668;BME280;24099;47.102;15.440;2023-03-21T06:04:16;97255.06;;;2.90;100.00
3668;BME280;24099;47.102;15.440;2023-03-21T06:06:45;97245.44;;;2.81;100.00
3668;BME280;24099;47.102;15.440;2023-03-21T06:09:14;97245.78;;;2.97;100.00
3668;BME280;24099;47.102;15.440;2023-03-21T06:11:52;97252.06;;;3.04;100.00
3668;BME280;24099;47.102;15.440;2023-03-21T06:14:38;97257.41;;;3.02;100.00
3668;BME280;24099;47.102;15.440;2023-03-21T06:17:22;97258.34;;;2.92;100.00
3668;BME280;24099;47.102;15.440;2023-03-21T06:19:55;97255.63;;;3.03;100.00
3668;BME280;24099;47.102;15.440;2023-03-21T06:22:41;97249.66;;;3.12;100.00
3668;BME280;24099;47.102;15.440;2023-03-21T06:25:12;97254.44;;;3.17;100.00
3668;BME280;24099;47.102;15.440;2023-03-21T06:27:43;97253.38;;;3.19;100.00
3668;BME280;24099;47.102;15.440;2023-03-21T06:30:14;97257.19;;;3.15;100.00
3668;BME280;24099;47.102;15.440;2023-03-21T06:33:03;97255.44;;;3.35;100.00
3668;BME280;24099;47.102;15.440;2023-03-21T06:35:35;97257.66;;;3.39;100.00
3668;BME280;24099;47.102;15.440;2023-03-21T06:38:06;97247.50;;;3.46;100.00
3668;BME280;24099;47.102;15.440;2023-03-21T06:40:34;97261.31;;;3.46;100.00
3668;BME280;24099;47.102;15.440;2023-03-21T06:43:03;97258.75;;;3.66;100.00
3668;BME280;24099;47.102;15.440;2023-03-21T06:45:32;97251.22;;;3.72;100.00
3668;BME280;24099;47.102;15.440;2023-03-21T06:48:03;97265.31;;;3.89;100.00
3668;BME280;24099;47.102;15.440;2023-03-21T06:50:44;97263.94;;;4.04;100.00
3668;BME280;24099;47.102;15.440;2023-03-21T06:53:14;97264.19;;;4.11;100.00
3668;BME280;24099;47.102;15.440;2023-03-21T06:56:03;97262.94;;;4.25;100.00
3668;BME280;24099;47.102;15.440;2023-03-21T06:58:32;97264.94;;;4.50;100.00
3668;BME280;24099;47.102;15.440;2023-03-21T07:01:01;97256.28;;;4.49;100.00
3668;BME280;24099;47.102;15.440;2023-03-21T07:03:37;97244.03;;;4.69;100.00
3668;BME280;24099;47.102;15.440;2023-03-21T07:06:07;97247.63;;;4.96;100.00
3668;BME280;24099;47.102;15.440;2023-03-21T07:08:39;97244.00;;;5.24;100.00
3668;BME280;24099;47.102;15.440;2023-03-21T07:11:08;97248.66;;;5.30;100.00
3668;BME280;24099;47.102;15.440;2023-03-21T07:13:36;97240.69;;;5.85;100.00
3668;BME280;24099;47.102;15.440;2023-03-21T07:16:05;97237.63;;;6.07;100.00
3668;BME280;24099;47.102;15.440;2023-03-21T07:18:36;97225.66;;;6.48;100.00
3668;BME280;24099;47.102;15.440;2023-03-21T07:21:06;97221.31;;;6.65;100.00
3668;BME280;24099;47.102;15.440;2023-03-21T07:23:34;97212.91;;;6.87;100.00
3668;BME280;24099;47.102;15.440;2023-03-21T07:26:04;97205.38;;;6.84;100.00
3668;BME280;24099;47.102;15.440;2023-03-21T07:28:33;97201.97;;;6.92;100.00
3668;BME280;24099;47.102;15.440;2023-03-21T07:31:03;97191.81;;;7.39;100.00
3668;BME280;24099;47.102;15.440;2023-03-21T07:33:35;97183.81;;;7.98;100.00
3668;BME280;24099;47.102;15.440;2023-03-21T07:36:09;97183.47;;;8.09;100.00
3668;BME280;24099;47.102;15.440;2023-03-21T07:38:40;97183.44;;;8.33;100.00
3668;BME280;24099;47.102;15.440;2023-03-21T07:41:08;97181.91;;;8.55;100.00
3668;BME280;24099;47.102;15.440;2023-03-21T07:43:36;97174.50;;;8.67;100.00
3668;BME280;24099;47.102;15.440;2023-03-21T07:46:10;97165.13;;;9.03;100.00
3668;BME280;24099;47.102;15.440;2023-03-21T07:48:39;97157.63;;;9.23;100.00
3668;BME280;24099;47.102;15.440;2023-03-21T07:51:08;97158.75;;;9.28;100.00
3668;BME280;24099;47.102;15.440;2023-03-21T07:53:38;97157.00;;;9.66;100.00
3668;BME280;24099;47.102;15.440;2023-03-21T07:56:08;97153.53;;;9.89;100.00
3668;BME280;24099;47.102;15.440;2023-03-21T07:58:36;97153.75;;;10.02;100.00
3668;BME280;24099;47.102;15.440;2023-03-21T08:01:06;97153.03;;;10.08;100.00
3668;BME280;24099;47.102;15.440;2023-03-21T08:03:34;97144.53;;;10.21;100.00
3668;BME280;24099;47.102;15.440;2023-03-21T08:06:05;97149.72;;;10.44;100.00
3668;BME280;24099;47.102;15.440;2023-03-21T08:08:33;97145.66;;;10.56;100.00
3668;BME280;24099;47.102;15.440;2023-03-21T08:11:02;97144.56;;;10.65;100.00
3668;BME280;24099;47.102;15.440;2023-03-21T08:13:31;97143.22;;;11.05;100.00
3668;BME280;24099;47.102;15.440;2023-03-21T08:16:01;97133.66;;;11.19;100.00
3668;BME280;24099;47.102;15.440;2023-03-21T08:18:29;97127.91;;;11.30;100.00
3668;BME280;24099;47.102;15.440;2023-03-21T08:20:58;97123.19;;;11.68;100.00
3668;BME280;24099;47.102;15.440;2023-03-21T08:23:28;97123.19;;;11.89;100.00
3668;BME280;24099;47.102;15.440;2023-03-21T08:25:59;97124.34;;;12.08;100.00
3668;BME280;24099;47.102;15.440;2023-03-21T08:28:27;97116.47;;;12.15;100.00
3668;BME280;24099;47.102;15.440;2023-03-21T08:30:55;97120.06;;;12.41;100.00
3668;BME280;24099;47.102;15.440;2023-03-21T08:33:23;97124.13;;;12.37;100.00
3668;BME280;24099;47.102;15.440;2023-03-21T08:35:58;97111.88;;;12.58;100.00
3668;BME280;24099;47.102;15.440;2023-03-21T08:38:30;97115.41;;;12.85;100.00
3668;BME280;24099;47.102;15.440;2023-03-21T08:40:59;97114.44;;;12.92;100.00
3668;BME280;24099;47.102;15.440;2023-03-21T08:43:28;97107.19;;;13.14;98.90
3668;BME280;24099;47.102;15.440;2023-03-21T08:45:58;97096.69;;;13.60;98.19
3668;BME280;24099;47.102;15.440;2023-03-21T08:48:26;97094.47;;;13.97;93.66
3668;BME280;24099;47.102;15.440;2023-03-21T08:50:53;97099.38;;;13.93;90.16
3668;BME280;24099;47.102;15.440;2023-03-21T08:53:22;97097.69;;;14.25;87.66
3668;BME280;24099;47.102;15.440;2023-03-21T08:55:51;97097.69;;;14.25;85.97
3668;BME280;24099;47.102;15.440;2023-03-21T08:58:20;97092.38;;;14.52;83.97
3668;BME280;24099;47.102;15.440;2023-03-21T09:00:49;97094.47;;;14.81;84.20
3668;BME280;24099;47.102;15.440;2023-03-21T09:03:17;97094.38;;;15.07;83.16
3668;BME280;24099;47.102;15.440;2023-03-21T09:05:46;97090.59;;;15.28;81.65
3668;BME280;24099;47.102;15.440;2023-03-21T09:08:15;97095.25;;;15.33;77.65
3668;BME280;24099;47.102;15.440;2023-03-21T09:10:43;97086.81;;;15.99;77.76
3668;BME280;24099;47.102;15.440;2023-03-21T09:13:13;97084.75;;;16.01;73.15
3668;BME280;24099;47.102;15.440;2023-03-21T09:15:41;97078.94;;;15.92;70.88
3668;BME280;24099;47.102;15.440;2023-03-21T09:18:09;97082.09;;;16.44;67.76
3668;BME280;24099;47.102;15.440;2023-03-21T09:20:42;97091.25;;;16.48;69.90
3668;BME280;24099;47.102;15.440;2023-03-21T09:23:10;97078.13;;;16.71;68.21
3668;BME280;24099;47.102;15.440;2023-03-21T09:25:39;97082.88;;;16.99;69.21
3668;BME280;24099;47.102;15.440;2023-03-21T09:28:09;97081.38;;;16.73;66.61
3668;BME280;24099;47.102;15.440;2023-03-21T09:30:41;97092.66;;;16.50;66.38
3668;BME280;24099;47.102;15.440;2023-03-21T09:33:11;97082.69;;;16.64;63.56
3668;BME280;24099;47.102;15.440;2023-03-21T09:35:46;97088.22;;;16.44;62.98
3668;BME280;24099;47.102;15.440;2023-03-21T09:38:14;97073.72;;;16.22;61.08
3668;BME280;24099;47.102;15.440;2023-03-21T09:40:55;97069.91;;;16.18;63.76
3668;BME280;24099;47.102;15.440;2023-03-21T09:43:44;97063.06;;;16.65;61.49
3668;BME280;24099;47.102;15.440;2023-03-21T09:46:23;97059.69;;;17.48;59.35
3668;BME280;24099;47.102;15.440;2023-03-21T09:48:57;97061.97;;;17.74;56.30
3668;BME280;24099;47.102;15.440;2023-03-21T09:51:30;97058.34;;;18.62;55.93
3668;BME280;24099;47.102;15.440;2023-03-21T09:54:02;97049.34;;;18.28;60.09
3668;BME280;24099;47.102;15.440;2023-03-21T09:56:33;97049.13;;;17.71;55.30
3668;BME280;24099;47.102;15.440;2023-03-21T09:59:05;97049.03;;;18.13;55.92
3668;BME280;24099;47.102;15.440;2023-03-21T10:01:39;97043.44;;;17.26;54.79
3668;BME280;24099;47.102;15.440;2023-03-21T10:04:13;97040.19;;;18.24;56.55
3668;BME280;24099;47.102;15.440;2023-03-21T10:06:43;97034.09;;;18.75;55.07
3668;BME280;24099;47.102;15.440;2023-03-21T10:09:15;97025.84;;;19.05;54.74
3668;BME280;24099;47.102;15.440;2023-03-21T10:11:49;97029.13;;;19.69;54.81
3668;BME280;24099;47.102;15.440;2023-03-21T10:14:24;97029.34;;;19.84;52.17
3668;BME280;24099;47.102;15.440;2023-03-21T10:16:59;97030.91;;;19.97;52.43
3668;BME280;24099;47.102;15.440;2023-03-21T10:19:27;97028.75;;;19.49;50.15
3668;BME280;24099;47.102;15.440;2023-03-21T10:21:57;97033.25;;;19.15;50.79
3668;BME280;24099;47.102;15.440;2023-03-21T10:24:27;97031.03;;;18.32;52.04
3668;BME280;24099;47.102;15.440;2023-03-21T10:26:56;97029.78;;;18.34;52.48
3668;BME280;24099;47.102;15.440;2023-03-21T10:29:26;97027.09;;;18.34;53.65
3668;BME280;24099;47.102;15.440;2023-03-21T10:31:56;97027.00;;;18.06;52.28
3668;BME280;24099;47.102;15.440;2023-03-21T10:34:29;97025.97;;;18.18;53.66
3668;BME280;24099;47.102;15.440;2023-03-21T10:36:59;97028.88;;;18.17;54.44
3668;BME280;24099;47.102;15.440;2023-03-21T10:39:33;97026.31;;;18.10;54.88
3668;BME280;24099;47.102;15.440;2023-03-21T10:42:03;97029.44;;;18.07;54.95
3668;BME280;24099;47.102;15.440;2023-03-21T10:44:33;97034.19;;;17.82;54.34
3668;BME280;24099;47.102;15.440;2023-03-21T10:47:06;97026.44;;;17.80;54.53
3668;BME280;24099;47.102;15.440;2023-03-21T10:49:36;97026.19;;;17.70;53.85
3668;BME280;24099;47.102;15.440;2023-03-21T10:52:06;97019.75;;;17.78;55.81
3668;BME280;24099;47.102;15.440;2023-03-21T10:54:35;97018.69;;;17.67;56.38
3668;BME280;24099;47.102;15.440;2023-03-21T10:57:05;97018.97;;;17.59;55.32
3668;BME280;24099;47.102;15.440;2023-03-21T10:59:38;97015.16;;;17.55;56.30
3668;BME280;24099;47.102;15.440;2023-03-21T11:02:18;97014.88;;;17.75;56.87
3668;BME280;24099;47.102;15.440;2023-03-21T11:04:47;97008.25;;;17.66;55.02
3668;BME280;24099;47.102;15.440;2023-03-21T11:07:15;97006.16;;;17.79;55.84
3668;BME280;24099;47.102;15.440;2023-03-21T11:09:49;97006.31;;;17.96;56.56
3668;BME280;24099;47.102;15.440;2023-03-21T11:12:18;97001.44;;;17.70;54.92
3668;BME280;24099;47.102;15.440;2023-03-21T11:14:55;96995.75;;;17.89;55.13
3668;BME280;24099;47.102;15.440;2023-03-21T11:17:28;96998.88;;;18.10;54.51
3668;BME280;24099;47.102;15.440;2023-03-21T11:19:58;96992.78;;;18.49;53.34
3668;BME280;24099;47.102;15.440;2023-03-21T11:22:29;96982.31;;;18.08;53.49
3668;BME280;24099;47.102;15.440;2023-03-21T11:25:09;96987.91;;;17.95;53.38
3668;BME280;24099;47.102;15.440;2023-03-21T11:27:47;96983.25;;;17.90;53.19
3668;BME280;24099;47.102;15.440;2023-03-21T11:30:21;96975.38;;;17.83;52.94
3668;BME280;24099;47.102;15.440;2023-03-21T11:32:56;96974.63;;;18.23;51.04
3668;BME280;24099;47.102;15.440;2023-03-21T11:35:31;96969.06;;;18.36;52.68
3668;BME280;24099;47.102;15.440;2023-03-21T11:37:59;96967.03;;;18.55;51.57
3668;BME280;24099;47.102;15.440;2023-03-21T11:40:28;96961.91;;;18.65;51.99
3668;BME280;24099;47.102;15.440;2023-03-21T11:42:58;96961.38;;;18.40;53.56
3668;BME280;24099;47.102;15.440;2023-03-21T11:45:29;96952.28;;;18.92;49.56
3668;BME280;24099;47.102;15.440;2023-03-21T11:48:01;96956.25;;;18.90;49.73
3668;BME280;24099;47.102;15.440;2023-03-21T11:50:33;96955.50;;;18.38;50.95
3668;BME280;24099;47.102;15.440;2023-03-21T11:53:16;96945.13;;;18.53;50.64
3668;BME280;24099;47.102;15.440;2023-03-21T11:55:59;96949.50;;;18.19;51.49
3668;BME280;24099;47.102;15.440;2023-03-21T11:58:36;96950.81;;;18.05;50.72
3668;BME280;24099;47.102;15.440;2023-03-21T12:01:12;96949.78;;;18.06;51.17
3668;BME280;24099;47.102;15.440;2023-03-21T12:04:03;96943.41;;;18.07;51.62
3668;BME280;24099;47.102;15.440;2023-03-21T12:06:35;96942.34;;;18.08;51.28
3668;BME280;24099;47.102;15.440;2023-03-21T12:12:29;96931.19;;;17.71;52.09
3668;BME280;24099;47.102;15.440;2023-03-21T12:15:05;96936.94;;;17.56;53.20
3668;BME280;24099;47.102;15.440;2023-03-21T12:17:46;96927.78;;;17.40;53.32
3668;BME280;24099;47.102;15.440;2023-03-21T12:20:28;96933.94;;;17.52;53.21
3668;BME280;24099;47.102;15.440;2023-03-21T12:23:27;96918.19;;;17.16;53.92
3668;BME280;24099;47.102;15.440;2023-03-21T12:26:13;96917.63;;;17.49;53.39
3668;BME280;24099;47.102;15.440;2023-03-21T12:28:56;96914.38;;;17.82;51.23
3668;BME280;24099;47.102;15.440;2023-03-21T12:31:36;96912.16;;;17.20;52.00
3668;BME280;24099;47.102;15.440;2023-03-21T12:34:19;96900.50;;;18.20;54.16
3668;BME280;24099;47.102;15.440;2023-03-21T12:37:07;96910.00;;;18.56;51.33
3668;BME280;24099;47.102;15.440;2023-03-21T12:39:41;96906.53;;;18.84;52.36
3668;BME280;24099;47.102;15.440;2023-03-21T12:42:39;96894.72;;;19.64;51.71
3668;BME280;24099;47.102;15.440;2023-03-21T12:45:14;96887.59;;;19.69;50.06
3668;BME280;24099;47.102;15.440;2023-03-21T12:47:46;96891.25;;;19.46;51.41
3668;BME280;24099;47.102;15.440;2023-03-21T12:50:17;96888.50;;;19.24;49.62
3668;BME280;24099;47.102;15.440;2023-03-21T12:52:50;96886.16;;;19.45;49.59
3668;BME280;24099;47.102;15.440;2023-03-21T12:55:22;96870.88;;;20.22;49.99
3668;BME280;24099;47.102;15.440;2023-03-21T12:57:54;96870.81;;;19.52;49.32
3668;BME280;24099;47.102;15.440;2023-03-21T13:00:27;96868.75;;;20.24;47.71
3668;BME280;24099;47.102;15.440;2023-03-21T13:03:00;96868.53;;;18.48;48.61
3668;BME280;24099;47.102;15.440;2023-03-21T13:05:34;96862.56;;;19.75;48.50
3668;BME280;24099;47.102;15.440;2023-03-21T13:08:08;96848.16;;;19.54;48.18
3668;BME280;24099;47.102;15.440;2023-03-21T13:10:39;96847.47;;;19.64;48.41
3668;BME280;24099;47.102;15.440;2023-03-21T13:13:16;96845.59;;;20.08;47.66
3668;BME280;24099;47.102;15.440;2023-03-21T13:16:01;96842.88;;;19.81;48.00
3668;BME280;24099;47.102;15.440;2023-03-21T13:18:51;96845.84;;;19.63;47.99
3668;BME280;24099;47.102;15.440;2023-03-21T13:21:29;96839.78;;;19.89;50.09
3668;BME280;24099;47.102;15.440;2023-03-21T13:24:04;96828.91;;;19.74;48.47
3668;BME280;24099;47.102;15.440;2023-03-21T13:26:36;96828.03;;;20.12;47.87
3668;BME280;24099;47.102;15.440;2023-03-21T13:29:13;96834.56;;;19.56;47.17
3668;BME280;24099;47.102;15.440;2023-03-21T13:31:48;96821.19;;;19.39;48.85
3668;BME280;24099;47.102;15.440;2023-03-21T13:34:20;96826.44;;;19.12;46.79
3668;BME280;24099;47.102;15.440;2023-03-21T13:36:49;96821.19;;;19.39;49.82
3668;BME280;24099;47.102;15.440;2023-03-21T13:39:23;96825.94;;;19.71;47.80
3668;BME280;24099;47.102;15.440;2023-03-21T13:41:52;96827.59;;;19.55;46.65
3668;BME280;24099;47.102;15.440;2023-03-21T13:44:30;96824.81;;;19.67;47.90